Aérodrome :
LOGIN :

S'inscrire | Disclaimer

   EN    FR    IT 

 










Légende :    VFR   VFR Marginal   IFR   IFR Intensif   IFR Très Intensif
Visi : 
Plafond : 
>= 8 km
>= 3000ft
5 à 8 km
1000 à 3000 ft
1500m à 5 km
500 à 1000 ft
800 à 1500m
200 à 500 ft
< 800m
< 200 ft
Symboles :   Orages  Brouillard  Fortes neiges  Fortes précipitations  Vent > 20 kt
SIGMETs :   Divers  Orages  Givrage  Turbulence  Onde Orograph.  Cendres Volcan.







- Altitude de l'aérodrome : 325 ft
- Code IATA : BES
- Voir les cartes d'approche


LFRB - Brest

DERNIER METAR :
  • 230330Z AUTO 00000KT 9999 VV/// 12/12 Q1019 TEMPO 0600 FG BKN001

METARs EXPIRÉS :
  • 230300Z AUTO 25001KT 9999 0450 R25/2000U R07/P2000 BCFG BKN003 12/12 Q1019 TEMPO 0600 FG BKN001
  • 230230Z AUTO 22001KT 9000 1600 VV/// 12/12 Q1019 TEMPO 0600 FG BKN001
  • 230200Z AUTO 00000KT 9999 SCT003 12/12 Q1019 TEMPO 0600 FG BKN001
  • 230130Z AUTO 17001KT 9999 FEW003 13/13 Q1019 TEMPO 0600 FG BKN001
  • 230100Z AUTO 18002KT CAVOK 13/13 Q1019 TEMPO 0600 FG BKN001

TAF AMD TAF LFRB
Valide du 23 à 00h jusqu'au 24 à 06h UTC


222309Z 2300/2406 03003KT CAVOK
TEMPO 2300/2308 1500 BR
PROB30
TEMPO 2300/2306 0600 FG BKN001
ATIS : +33 2 98 32 02 71
Pas de NOTAMs connus pour ce terrain.



MET'MAP, la Météo Aéronautique d'un coup d'oeil ! - Copyright ORBIFLY Décembre 2007 - Disclaimer

ORBIFLY MET'MAP TEAM :

Programmation & Développement : Alexandra Zaïnal
Conception & Développement : Baudouin d'Aumeries
Co-Programmation & Développement : Marc-Olivier Méhu
Soutien technique & logistique : Manuel Goepfert

Contact : metmap@orbifly.com




SOURCES & CREDITS :

   NOAA